sensor_id;sensor_type;location;lat;lon;timestamp;temperature;humidity
11855;DHT22;5987;53.140;8.904;2022-10-23T00:02:56;11.00;99.90
11855;DHT22;5987;53.140;8.904;2022-10-23T00:06:04;11.00;99.90
11855;DHT22;5987;53.140;8.904;2022-10-23T00:09:10;10.90;99.90
11855;DHT22;5987;53.140;8.904;2022-10-23T00:12:15;10.80;99.90
11855;DHT22;5987;53.140;8.904;2022-10-23T00:15:21;10.80;99.90
11855;DHT22;5987;53.140;8.904;2022-10-23T00:18:25;10.90;99.90
11855;DHT22;5987;53.140;8.904;2022-10-23T00:21:30;10.90;99.90
11855;DHT22;5987;53.140;8.904;2022-10-23T00:24:34;10.80;99.90
11855;DHT22;5987;53.140;8.904;2022-10-23T00:27:38;10.70;99.90
11855;DHT22;5987;53.140;8.904;2022-10-23T00:30:42;10.80;99.90
11855;DHT22;5987;53.140;8.904;2022-10-23T00:33:46;10.80;99.90
11855;DHT22;5987;53.140;8.904;2022-10-23T00:36:51;10.60;99.90
11855;DHT22;5987;53.140;8.904;2022-10-23T00:39:55;10.60;99.90
11855;DHT22;5987;53.140;8.904;2022-10-23T00:42:58;10.50;99.90
11855;DHT22;5987;53.140;8.904;2022-10-23T00:46:02;10.40;99.90
11855;DHT22;5987;53.140;8.904;2022-10-23T00:49:07;10.30;99.90
11855;DHT22;5987;53.140;8.904;2022-10-23T00:52:17;10.30;99.90
11855;DHT22;5987;53.140;8.904;2022-10-23T00:55:23;10.30;99.90
11855;DHT22;5987;53.140;8.904;2022-10-23T00:58:27;10.20;99.90
11855;DHT22;5987;53.140;8.904;2022-10-23T01:01:31;10.20;99.90
11855;DHT22;5987;53.140;8.904;2022-10-23T01:04:36;10.30;99.90
11855;DHT22;5987;53.140;8.904;2022-10-23T01:07:49;10.40;99.90
11855;DHT22;5987;53.140;8.904;2022-10-23T01:11:02;10.40;99.90
11855;DHT22;5987;53.140;8.904;2022-10-23T01:14:20;10.40;99.90
11855;DHT22;5987;53.140;8.904;2022-10-23T01:17:34;10.50;99.90
11855;DHT22;5987;53.140;8.904;2022-10-23T01:20:49;10.40;99.90
11855;DHT22;5987;53.140;8.904;2022-10-23T01:24:18;10.40;99.90
11855;DHT22;5987;53.140;8.904;2022-10-23T01:27:36;10.40;99.90
11855;DHT22;5987;53.140;8.904;2022-10-23T01:30:44;10.30;99.90
11855;DHT22;5987;53.140;8.904;2022-10-23T01:33:53;10.40;99.90
11855;DHT22;5987;53.140;8.904;2022-10-23T01:37:03;10.40;99.90
11855;DHT22;5987;53.140;8.904;2022-10-23T01:40:17;10.30;99.90
11855;DHT22;5987;53.140;8.904;2022-10-23T01:43:29;10.30;99.90
11855;DHT22;5987;53.140;8.904;2022-10-23T01:46:39;10.20;99.90
11855;DHT22;5987;53.140;8.904;2022-10-23T01:49:45;10.10;99.90
11855;DHT22;5987;53.140;8.904;2022-10-23T01:52:51;10.00;99.90
11855;DHT22;5987;53.140;8.904;2022-10-23T01:55:55;9.80;99.90
11855;DHT22;5987;53.140;8.904;2022-10-23T01:59:07;9.90;99.90
11855;DHT22;5987;53.140;8.904;2022-10-23T02:02:15;10.00;99.90
11855;DHT22;5987;53.140;8.904;2022-10-23T02:05:23;9.90;99.90
11855;DHT22;5987;53.140;8.904;2022-10-23T02:08:30;9.70;99.90
11855;DHT22;5987;53.140;8.904;2022-10-23T02:11:38;9.70;99.90
11855;DHT22;5987;53.140;8.904;2022-10-23T02:14:53;9.70;99.90
11855;DHT22;5987;53.140;8.904;2022-10-23T02:18:05;9.70;99.90
11855;DHT22;5987;53.140;8.904;2022-10-23T02:21:18;9.80;99.90
11855;DHT22;5987;53.140;8.904;2022-10-23T02:24:31;9.80;99.90
11855;DHT22;5987;53.140;8.904;2022-10-23T02:27:45;9.80;99.90
11855;DHT22;5987;53.140;8.904;2022-10-23T02:30:54;9.80;99.90
11855;DHT22;5987;53.140;8.904;2022-10-23T02:34:03;9.90;99.90
11855;DHT22;5987;53.140;8.904;2022-10-23T02:37:06;10.00;99.90
11855;DHT22;5987;53.140;8.904;2022-10-23T02:40:10;10.00;99.90
11855;DHT22;5987;53.140;8.904;2022-10-23T02:43:20;9.90;99.90
11855;DHT22;5987;53.140;8.904;2022-10-23T02:46:37;9.80;99.90
11855;DHT22;5987;53.140;8.904;2022-10-23T02:49:55;9.80;99.90
11855;DHT22;5987;53.140;8.904;2022-10-23T02:53:13;9.90;99.90
11855;DHT22;5987;53.140;8.904;2022-10-23T02:56:25;10.00;99.90
11855;DHT22;5987;53.140;8.904;2022-10-23T02:59:42;10.00;99.90
11855;DHT22;5987;53.140;8.904;2022-10-23T03:02:54;10.10;99.90
11855;DHT22;5987;53.140;8.904;2022-10-23T03:06:01;10.00;99.90
11855;DHT22;5987;53.140;8.904;2022-10-23T03:09:07;10.10;99.90
11855;DHT22;5987;53.140;8.904;2022-10-23T03:12:11;10.10;99.90
11855;DHT22;5987;53.140;8.904;2022-10-23T03:15:15;10.10;99.90
11855;DHT22;5987;53.140;8.904;2022-10-23T03:18:21;10.20;99.90
11855;DHT22;5987;53.140;8.904;2022-10-23T03:21:25;10.20;99.90
11855;DHT22;5987;53.140;8.904;2022-10-23T03:24:28;10.10;99.90
11855;DHT22;5987;53.140;8.904;2022-10-23T03:27:32;10.10;99.90
11855;DHT22;5987;53.140;8.904;2022-10-23T03:30:36;10.10;99.90
11855;DHT22;5987;53.140;8.904;2022-10-23T03:33:41;10.10;99.90
11855;DHT22;5987;53.140;8.904;2022-10-23T03:36:44;10.10;99.90
11855;DHT22;5987;53.140;8.904;2022-10-23T03:39:48;10.20;99.90
11855;DHT22;5987;53.140;8.904;2022-10-23T03:42:52;10.20;99.90
11855;DHT22;5987;53.140;8.904;2022-10-23T03:45:56;10.20;99.90
11855;DHT22;5987;53.140;8.904;2022-10-23T03:49:01;10.10;99.90
11855;DHT22;5987;53.140;8.904;2022-10-23T03:52:05;10.10;99.90
11855;DHT22;5987;53.140;8.904;2022-10-23T03:55:10;10.10;99.90
11855;DHT22;5987;53.140;8.904;2022-10-23T03:58:14;10.20;99.90
11855;DHT22;5987;53.140;8.904;2022-10-23T04:01:17;10.10;99.90
11855;DHT22;5987;53.140;8.904;2022-10-23T04:04:23;10.10;99.90
11855;DHT22;5987;53.140;8.904;2022-10-23T04:07:26;10.60;99.90
11855;DHT22;5987;53.140;8.904;2022-10-23T04:10:30;10.20;99.90
11855;DHT22;5987;53.140;8.904;2022-10-23T04:13:34;10.00;99.90
11855;DHT22;5987;53.140;8.904;2022-10-23T04:16:37;9.80;99.90
11855;DHT22;5987;53.140;8.904;2022-10-23T04:19:42;9.70;99.90
11855;DHT22;5987;53.140;8.904;2022-10-23T04:22:46;9.60;99.90
11855;DHT22;5987;53.140;8.904;2022-10-23T04:25:49;9.60;99.90
11855;DHT22;5987;53.140;8.904;2022-10-23T04:28:55;9.50;99.90
11855;DHT22;5987;53.140;8.904;2022-10-23T04:31:59;9.50;99.90
11855;DHT22;5987;53.140;8.904;2022-10-23T04:35:06;9.50;99.90
11855;DHT22;5987;53.140;8.904;2022-10-23T04:38:10;9.40;99.90
11855;DHT22;5987;53.140;8.904;2022-10-23T04:41:13;9.50;99.90
11855;DHT22;5987;53.140;8.904;2022-10-23T04:44:17;9.60;99.90
11855;DHT22;5987;53.140;8.904;2022-10-23T04:47:21;9.70;99.90
11855;DHT22;5987;53.140;8.904;2022-10-23T04:50:27;9.80;99.90
11855;DHT22;5987;53.140;8.904;2022-10-23T04:53:31;9.80;99.90
11855;DHT22;5987;53.140;8.904;2022-10-23T04:56:34;9.90;99.90
11855;DHT22;5987;53.140;8.904;2022-10-23T04:59:38;9.90;99.90
11855;DHT22;5987;53.140;8.904;2022-10-23T05:02:42;9.80;99.90
11855;DHT22;5987;53.140;8.904;2022-10-23T05:05:47;9.70;99.90
11855;DHT22;5987;53.140;8.904;2022-10-23T05:08:51;9.70;99.90
11855;DHT22;5987;53.140;8.904;2022-10-23T05:11:56;9.80;99.90
11855;DHT22;5987;53.140;8.904;2022-10-23T05:14:59;9.80;99.90
11855;DHT22;5987;53.140;8.904;2022-10-23T05:18:08;9.80;99.90
11855;DHT22;5987;53.140;8.904;2022-10-23T05:21:19;9.90;99.90
11855;DHT22;5987;53.140;8.904;2022-10-23T05:24:27;9.90;99.90
11855;DHT22;5987;53.140;8.904;2022-10-23T05:27:30;9.90;99.90
11855;DHT22;5987;53.140;8.904;2022-10-23T05:30:38;9.80;99.90
11855;DHT22;5987;53.140;8.904;2022-10-23T05:33:47;9.90;99.90
11855;DHT22;5987;53.140;8.904;2022-10-23T05:36:52;9.90;99.90
11855;DHT22;5987;53.140;8.904;2022-10-23T05:39:57;9.90;99.90
11855;DHT22;5987;53.140;8.904;2022-10-23T05:43:00;9.80;99.90
11855;DHT22;5987;53.140;8.904;2022-10-23T05:46:05;9.70;99.90
11855;DHT22;5987;53.140;8.904;2022-10-23T05:49:09;9.70;99.90
11855;DHT22;5987;53.140;8.904;2022-10-23T05:52:14;9.80;99.90
11855;DHT22;5987;53.140;8.904;2022-10-23T05:55:17;9.70;99.90
11855;DHT22;5987;53.140;8.904;2022-10-23T05:58:21;9.70;99.90
11855;DHT22;5987;53.140;8.904;2022-10-23T06:01:25;9.80;99.90
11855;DHT22;5987;53.140;8.904;2022-10-23T06:04:28;9.90;99.90
11855;DHT22;5987;53.140;8.904;2022-10-23T06:07:33;9.90;99.90
11855;DHT22;5987;53.140;8.904;2022-10-23T06:10:37;9.90;99.90
11855;DHT22;5987;53.140;8.904;2022-10-23T06:13:42;9.90;99.90
11855;DHT22;5987;53.140;8.904;2022-10-23T06:16:46;10.00;99.90
11855;DHT22;5987;53.140;8.904;2022-10-23T06:19:50;10.00;99.90
11855;DHT22;5987;53.140;8.904;2022-10-23T06:22:55;10.00;99.90
11855;DHT22;5987;53.140;8.904;2022-10-23T06:25:59;10.00;99.90
11855;DHT22;5987;53.140;8.904;2022-10-23T06:29:03;10.00;99.90
11855;DHT22;5987;53.140;8.904;2022-10-23T06:32:07;10.10;99.90
11855;DHT22;5987;53.140;8.904;2022-10-23T06:35:11;10.20;99.90
11855;DHT22;5987;53.140;8.904;2022-10-23T06:38:16;10.10;99.90
11855;DHT22;5987;53.140;8.904;2022-10-23T06:41:20;10.10;99.90
11855;DHT22;5987;53.140;8.904;2022-10-23T06:44:24;10.20;99.90
11855;DHT22;5987;53.140;8.904;2022-10-23T06:47:28;10.20;99.90
11855;DHT22;5987;53.140;8.904;2022-10-23T06:50:31;10.30;99.90
11855;DHT22;5987;53.140;8.904;2022-10-23T06:53:37;10.40;99.90
11855;DHT22;5987;53.140;8.904;2022-10-23T06:56:41;10.40;99.90
11855;DHT22;5987;53.140;8.904;2022-10-23T06:59:45;10.40;99.90
11855;DHT22;5987;53.140;8.904;2022-10-23T07:02:49;10.50;99.90
11855;DHT22;5987;53.140;8.904;2022-10-23T07:05:53;10.60;99.90
11855;DHT22;5987;53.140;8.904;2022-10-23T07:08:58;10.60;99.90
11855;DHT22;5987;53.140;8.904;2022-10-23T07:12:02;10.70;99.90
11855;DHT22;5987;53.140;8.904;2022-10-23T07:15:07;10.80;99.90
11855;DHT22;5987;53.140;8.904;2022-10-23T07:18:11;10.90;99.90
11855;DHT22;5987;53.140;8.904;2022-10-23T07:21:16;11.00;99.90
11855;DHT22;5987;53.140;8.904;2022-10-23T07:24:21;11.00;99.90
11855;DHT22;5987;53.140;8.904;2022-10-23T07:27:24;11.20;99.90
11855;DHT22;5987;53.140;8.904;2022-10-23T07:30:29;11.20;99.90
11855;DHT22;5987;53.140;8.904;2022-10-23T07:33:33;11.30;99.90
11855;DHT22;5987;53.140;8.904;2022-10-23T07:36:37;11.40;99.90
11855;DHT22;5987;53.140;8.904;2022-10-23T07:39:42;11.50;99.90
11855;DHT22;5987;53.140;8.904;2022-10-23T07:42:45;11.60;99.90
11855;DHT22;5987;53.140;8.904;2022-10-23T07:45:49;11.70;99.90
11855;DHT22;5987;53.140;8.904;2022-10-23T07:48:53;11.70;99.90
11855;DHT22;5987;53.140;8.904;2022-10-23T07:51:57;11.80;99.90
11855;DHT22;5987;53.140;8.904;2022-10-23T07:55:04;11.80;99.90
11855;DHT22;5987;53.140;8.904;2022-10-23T07:58:08;12.00;99.90
11855;DHT22;5987;53.140;8.904;2022-10-23T08:01:17;12.00;99.90
11855;DHT22;5987;53.140;8.904;2022-10-23T08:04:22;12.10;99.90
11855;DHT22;5987;53.140;8.904;2022-10-23T08:07:27;12.10;99.90
11855;DHT22;5987;53.140;8.904;2022-10-23T08:10:32;12.10;99.90
11855;DHT22;5987;53.140;8.904;2022-10-23T08:13:36;12.20;99.90
11855;DHT22;5987;53.140;8.904;2022-10-23T08:16:39;12.30;99.90
11855;DHT22;5987;53.140;8.904;2022-10-23T08:19:44;12.30;99.90
11855;DHT22;5987;53.140;8.904;2022-10-23T08:22:50;12.40;99.90
11855;DHT22;5987;53.140;8.904;2022-10-23T08:25:58;12.40;99.90
11855;DHT22;5987;53.140;8.904;2022-10-23T08:29:02;12.50;99.90
11855;DHT22;5987;53.140;8.904;2022-10-23T08:32:06;12.40;99.90
11855;DHT22;5987;53.140;8.904;2022-10-23T08:35:10;12.50;99.90
11855;DHT22;5987;53.140;8.904;2022-10-23T08:38:14;12.60;99.90
11855;DHT22;5987;53.140;8.904;2022-10-23T08:41:24;12.60;99.90
11855;DHT22;5987;53.140;8.904;2022-10-23T08:44:34;12.70;99.90
11855;DHT22;5987;53.140;8.904;2022-10-23T08:47:47;12.70;99.90
11855;DHT22;5987;53.140;8.904;2022-10-23T08:51:03;12.80;99.90
11855;DHT22;5987;53.140;8.904;2022-10-23T08:54:13;12.70;99.90
11855;DHT22;5987;53.140;8.904;2022-10-23T08:57:26;12.90;99.90
11855;DHT22;5987;53.140;8.904;2022-10-23T09:00:43;13.00;99.90
11855;DHT22;5987;53.140;8.904;2022-10-23T09:03:53;13.10;99.90
11855;DHT22;5987;53.140;8.904;2022-10-23T09:07:01;13.20;99.90
11855;DHT22;5987;53.140;8.904;2022-10-23T09:10:31;13.20;99.90
11855;DHT22;5987;53.140;8.904;2022-10-23T09:14:17;13.30;99.90
11855;DHT22;5987;53.140;8.904;2022-10-23T09:17:38;13.30;99.90
11855;DHT22;5987;53.140;8.904;2022-10-23T09:20:45;13.40;99.90
11855;DHT22;5987;53.140;8.904;2022-10-23T09:23:49;13.60;99.90
11855;DHT22;5987;53.140;8.904;2022-10-23T09:26:53;13.60;99.90
11855;DHT22;5987;53.140;8.904;2022-10-23T09:29:58;13.70;99.90
11855;DHT22;5987;53.140;8.904;2022-10-23T09:33:13;13.80;99.90
11855;DHT22;5987;53.140;8.904;2022-10-23T09:36:20;13.90;99.90
11855;DHT22;5987;53.140;8.904;2022-10-23T09:39:29;14.00;99.90
11855;DHT22;5987;53.140;8.904;2022-10-23T09:42:34;14.10;99.90
11855;DHT22;5987;53.140;8.904;2022-10-23T09:45:39;14.20;99.90
11855;DHT22;5987;53.140;8.904;2022-10-23T09:48:43;14.20;99.90
11855;DHT22;5987;53.140;8.904;2022-10-23T09:51:58;14.10;99.90
11855;DHT22;5987;53.140;8.904;2022-10-23T09:55:18;14.20;99.90
11855;DHT22;5987;53.140;8.904;2022-10-23T09:58:30;14.30;99.90
11855;DHT22;5987;53.140;8.904;2022-10-23T10:01:46;14.40;99.90
11855;DHT22;5987;53.140;8.904;2022-10-23T10:04:52;14.50;99.90
11855;DHT22;5987;53.140;8.904;2022-10-23T10:07:59;14.70;99.90
11855;DHT22;5987;53.140;8.904;2022-10-23T10:11:12;14.80;99.90
11855;DHT22;5987;53.140;8.904;2022-10-23T10:14:44;15.00;99.90
11855;DHT22;5987;53.140;8.904;2022-10-23T10:18:05;15.00;99.90
11855;DHT22;5987;53.140;8.904;2022-10-23T10:21:21;15.10;99.90
11855;DHT22;5987;53.140;8.904;2022-10-23T10:24:33;15.10;99.90
11855;DHT22;5987;53.140;8.904;2022-10-23T10:27:48;15.10;99.90
11855;DHT22;5987;53.140;8.904;2022-10-23T10:31:08;15.30;99.90
11855;DHT22;5987;53.140;8.904;2022-10-23T10:34:27;15.20;99.90
11855;DHT22;5987;53.140;8.904;2022-10-23T10:37:45;15.20;99.90
11855;DHT22;5987;53.140;8.904;2022-10-23T10:41:36;15.30;99.90
11855;DHT22;5987;53.140;8.904;2022-10-23T10:48:39;15.40;99.90
11855;DHT22;5987;53.140;8.904;2022-10-23T10:51:57;15.50;99.90
11855;DHT22;5987;53.140;8.904;2022-10-23T10:55:15;15.40;99.90
11855;DHT22;5987;53.140;8.904;2022-10-23T10:58:30;15.50;99.90
11855;DHT22;5987;53.140;8.904;2022-10-23T11:01:44;15.70;99.90
11855;DHT22;5987;53.140;8.904;2022-10-23T11:04:59;15.70;99.90
11855;DHT22;5987;53.140;8.904;2022-10-23T11:08:17;15.90;99.90
11855;DHT22;5987;53.140;8.904;2022-10-23T11:11:27;16.00;99.90
11855;DHT22;5987;53.140;8.904;2022-10-23T11:14:37;16.00;99.90
11855;DHT22;5987;53.140;8.904;2022-10-23T11:17:47;16.10;99.90
11855;DHT22;5987;53.140;8.904;2022-10-23T11:21:01;16.00;99.90
11855;DHT22;5987;53.140;8.904;2022-10-23T11:24:49;16.20;99.90
11855;DHT22;5987;53.140;8.904;2022-10-23T11:32:28;16.30;99.90
11855;DHT22;5987;53.140;8.904;2022-10-23T11:35:53;16.30;99.90
11855;DHT22;5987;53.140;8.904;2022-10-23T11:39:15;16.40;99.90
11855;DHT22;5987;53.140;8.904;2022-10-23T11:42:30;16.40;99.90
11855;DHT22;5987;53.140;8.904;2022-10-23T11:45:37;16.60;99.90
11855;DHT22;5987;53.140;8.904;2022-10-23T11:48:43;16.60;99.90
11855;DHT22;5987;53.140;8.904;2022-10-23T11:51:59;16.50;99.90
11855;DHT22;5987;53.140;8.904;2022-10-23T11:55:16;16.60;99.90
11855;DHT22;5987;53.140;8.904;2022-10-23T11:58:25;16.60;99.90
11855;DHT22;5987;53.140;8.904;2022-10-23T12:01:35;16.60;99.90
11855;DHT22;5987;53.140;8.904;2022-10-23T12:04:46;16.70;99.90
11855;DHT22;5987;53.140;8.904;2022-10-23T12:07:53;16.70;99.90
11855;DHT22;5987;53.140;8.904;2022-10-23T12:10:59;16.80;99.90
11855;DHT22;5987;53.140;8.904;2022-10-23T12:14:24;16.80;99.90
11855;DHT22;5987;53.140;8.904;2022-10-23T12:17:33;16.90;99.90
11855;DHT22;5987;53.140;8.904;2022-10-23T12:20:51;17.00;99.90
11855;DHT22;5987;53.140;8.904;2022-10-23T12:24:15;17.10;99.90
11855;DHT22;5987;53.140;8.904;2022-10-23T12:27:38;17.10;99.90
11855;DHT22;5987;53.140;8.904;2022-10-23T12:30:55;17.20;99.90
11855;DHT22;5987;53.140;8.904;2022-10-23T12:34:21;17.30;99.90
11855;DHT22;5987;53.140;8.904;2022-10-23T12:37:54;17.40;99.90
11855;DHT22;5987;53.140;8.904;2022-10-23T12:41:12;17.50;99.90
11855;DHT22;5987;53.140;8.904;2022-10-23T12:44:16;17.60;99.90
11855;DHT22;5987;53.140;8.904;2022-10-23T12:47:22;17.70;99.90
11855;DHT22;5987;53.140;8.904;2022-10-23T12:50:27;17.70;99.90
11855;DHT22;5987;53.140;8.904;2022-10-23T12:53:33;17.60;99.90
11855;DHT22;5987;53.140;8.904;2022-10-23T12:56:36;17.50;99.90
11855;DHT22;5987;53.140;8.904;2022-10-23T12:59:41;17.50;99.90
11855;DHT22;5987;53.140;8.904;2022-10-23T13:02:46;17.40;99.90
11855;DHT22;5987;53.140;8.904;2022-10-23T13:06:00;17.50;99.90
11855;DHT22;5987;53.140;8.904;2022-10-23T13:09:06;17.40;99.90
11855;DHT22;5987;53.140;8.904;2022-10-23T13:12:23;17.40;99.90
11855;DHT22;5987;53.140;8.904;2022-10-23T13:15:36;17.30;99.90
11855;DHT22;5987;53.140;8.904;2022-10-23T13:18:45;17.40;99.90
11855;DHT22;5987;53.140;8.904;2022-10-23T13:21:48;17.40;99.90
11855;DHT22;5987;53.140;8.904;2022-10-23T13:24:52;17.30;99.90
11855;DHT22;5987;53.140;8.904;2022-10-23T13:28:12;17.30;99.90
11855;DHT22;5987;53.140;8.904;2022-10-23T13:31:31;17.30;99.90
11855;DHT22;5987;53.140;8.904;2022-10-23T13:34:37;17.20;99.90
11855;DHT22;5987;53.140;8.904;2022-10-23T13:37:41;17.00;99.90
11855;DHT22;5987;53.140;8.904;2022-10-23T13:40:54;16.90;99.90
11855;DHT22;5987;53.140;8.904;2022-10-23T13:44:00;17.10;99.90
11855;DHT22;5987;53.140;8.904;2022-10-23T13:47:03;17.10;99.90
11855;DHT22;5987;53.140;8.904;2022-10-23T13:50:09;17.10;99.90
11855;DHT22;5987;53.140;8.904;2022-10-23T13:53:13;17.00;99.90
11855;DHT22;5987;53.140;8.904;2022-10-23T13:56:19;17.00;99.90
11855;DHT22;5987;53.140;8.904;2022-10-23T13:59:24;17.00;99.90
11855;DHT22;5987;53.140;8.904;2022-10-23T14:02:27;17.10;99.90
11855;DHT22;5987;53.140;8.904;2022-10-23T14:05:33;17.10;99.90
11855;DHT22;5987;53.140;8.904;2022-10-23T14:08:37;17.00;99.90
11855;DHT22;5987;53.140;8.904;2022-10-23T14:11:41;17.10;99.90
11855;DHT22;5987;53.140;8.904;2022-10-23T14:14:49;17.00;99.90
11855;DHT22;5987;53.140;8.904;2022-10-23T14:17:53;17.00;99.90
11855;DHT22;5987;53.140;8.904;2022-10-23T14:21:04;17.00;99.90
11855;DHT22;5987;53.140;8.904;2022-10-23T14:24:09;17.10;99.90
11855;DHT22;5987;53.140;8.904;2022-10-23T14:27:13;17.10;99.90
11855;DHT22;5987;53.140;8.904;2022-10-23T14:30:16;17.00;99.90
11855;DHT22;5987;53.140;8.904;2022-10-23T14:33:20;16.90;99.90
11855;DHT22;5987;53.140;8.904;2022-10-23T14:36:25;16.90;99.90
11855;DHT22;5987;53.140;8.904;2022-10-23T14:39:50;16.80;99.90
11855;DHT22;5987;53.140;8.904;2022-10-23T14:42:53;16.80;99.90
11855;DHT22;5987;53.140;8.904;2022-10-23T14:46:07;16.80;99.90
11855;DHT22;5987;53.140;8.904;2022-10-23T14:49:12;16.70;99.90
11855;DHT22;5987;53.140;8.904;2022-10-23T14:52:17;16.70;99.90
11855;DHT22;5987;53.140;8.904;2022-10-23T14:55:21;16.70;99.90
11855;DHT22;5987;53.140;8.904;2022-10-23T14:58:24;16.70;99.90
11855;DHT22;5987;53.140;8.904;2022-10-23T15:01:29;16.70;99.90
11855;DHT22;5987;53.140;8.904;2022-10-23T15:04:34;16.60;99.90
11855;DHT22;5987;53.140;8.904;2022-10-23T15:07:39;16.70;99.90
11855;DHT22;5987;53.140;8.904;2022-10-23T15:10:42;16.60;99.90
11855;DHT22;5987;53.140;8.904;2022-10-23T15:13:46;16.50;99.90
11855;DHT22;5987;53.140;8.904;2022-10-23T15:16:50;16.40;99.90
11855;DHT22;5987;53.140;8.904;2022-10-23T15:19:53;16.50;99.90
11855;DHT22;5987;53.140;8.904;2022-10-23T15:22:59;16.50;99.90
11855;DHT22;5987;53.140;8.904;2022-10-23T15:26:05;16.40;99.90
11855;DHT22;5987;53.140;8.904;2022-10-23T15:29:11;16.30;99.90
11855;DHT22;5987;53.140;8.904;2022-10-23T15:32:16;16.30;99.90
11855;DHT22;5987;53.140;8.904;2022-10-23T15:35:20;16.30;99.90
11855;DHT22;5987;53.140;8.904;2022-10-23T15:38:25;16.30;99.90
11855;DHT22;5987;53.140;8.904;2022-10-23T15:41:31;16.30;99.90
11855;DHT22;5987;53.140;8.904;2022-10-23T15:44:36;16.30;99.90
11855;DHT22;5987;53.140;8.904;2022-10-23T15:47:42;16.30;99.90
11855;DHT22;5987;53.140;8.904;2022-10-23T15:50:46;16.20;99.90
11855;DHT22;5987;53.140;8.904;2022-10-23T15:53:52;16.20;99.90
11855;DHT22;5987;53.140;8.904;2022-10-23T15:56:57;16.20;99.90
11855;DHT22;5987;53.140;8.904;2022-10-23T16:00:01;16.20;99.90
11855;DHT22;5987;53.140;8.904;2022-10-23T16:03:05;16.20;99.90
11855;DHT22;5987;53.140;8.904;2022-10-23T16:06:10;16.10;99.90
11855;DHT22;5987;53.140;8.904;2022-10-23T16:09:16;16.10;99.90
11855;DHT22;5987;53.140;8.904;2022-10-23T16:12:20;16.10;99.90
11855;DHT22;5987;53.140;8.904;2022-10-23T16:15:24;16.20;99.90
11855;DHT22;5987;53.140;8.904;2022-10-23T16:18:27;16.10;99.90
11855;DHT22;5987;53.140;8.904;2022-10-23T16:21:33;16.20;99.90
11855;DHT22;5987;53.140;8.904;2022-10-23T16:24:39;16.20;99.90
11855;DHT22;5987;53.140;8.904;2022-10-23T16:27:43;16.20;99.90
11855;DHT22;5987;53.140;8.904;2022-10-23T16:30:47;16.10;99.90
11855;DHT22;5987;53.140;8.904;2022-10-23T16:33:52;16.00;99.90
11855;DHT22;5987;53.140;8.904;2022-10-23T16:36:56;15.90;99.90
11855;DHT22;5987;53.140;8.904;2022-10-23T16:40:01;15.90;99.90
11855;DHT22;5987;53.140;8.904;2022-10-23T16:43:05;15.90;99.90
11855;DHT22;5987;53.140;8.904;2022-10-23T16:46:11;15.90;99.90
11855;DHT22;5987;53.140;8.904;2022-10-23T16:49:17;15.70;99.90
11855;DHT22;5987;53.140;8.904;2022-10-23T16:52:20;15.70;99.90
11855;DHT22;5987;53.140;8.904;2022-10-23T16:55:26;15.70;99.90
11855;DHT22;5987;53.140;8.904;2022-10-23T16:58:30;15.70;99.90
11855;DHT22;5987;53.140;8.904;2022-10-23T17:01:35;15.60;99.90
11855;DHT22;5987;53.140;8.904;2022-10-23T17:04:39;15.60;99.90
11855;DHT22;5987;53.140;8.904;2022-10-23T17:07:43;15.60;99.90
11855;DHT22;5987;53.140;8.904;2022-10-23T17:10:48;15.60;99.90
11855;DHT22;5987;53.140;8.904;2022-10-23T17:13:53;15.50;99.90
11855;DHT22;5987;53.140;8.904;2022-10-23T17:17:00;15.60;99.90
11855;DHT22;5987;53.140;8.904;2022-10-23T17:20:05;15.50;99.90
11855;DHT22;5987;53.140;8.904;2022-10-23T17:23:09;15.50;99.90
11855;DHT22;5987;53.140;8.904;2022-10-23T17:26:17;15.50;99.90
11855;DHT22;5987;53.140;8.904;2022-10-23T17:29:22;15.50;99.90
11855;DHT22;5987;53.140;8.904;2022-10-23T17:32:26;15.50;99.90
11855;DHT22;5987;53.140;8.904;2022-10-23T17:35:30;15.50;99.90
11855;DHT22;5987;53.140;8.904;2022-10-23T17:38:35;15.50;99.90
11855;DHT22;5987;53.140;8.904;2022-10-23T17:41:41;15.50;99.90
11855;DHT22;5987;53.140;8.904;2022-10-23T17:44:45;15.60;99.90
11855;DHT22;5987;53.140;8.904;2022-10-23T17:47:49;15.70;99.90
11855;DHT22;5987;53.140;8.904;2022-10-23T17:51:00;15.70;99.90
11855;DHT22;5987;53.140;8.904;2022-10-23T17:54:07;15.80;99.90
11855;DHT22;5987;53.140;8.904;2022-10-23T17:57:14;15.80;99.90
11855;DHT22;5987;53.140;8.904;2022-10-23T18:00:17;15.90;99.90
11855;DHT22;5987;53.140;8.904;2022-10-23T18:03:22;15.90;99.90
11855;DHT22;5987;53.140;8.904;2022-10-23T18:06:28;15.90;99.90
11855;DHT22;5987;53.140;8.904;2022-10-23T18:09:34;15.80;99.90
11855;DHT22;5987;53.140;8.904;2022-10-23T18:12:39;15.80;99.90
11855;DHT22;5987;53.140;8.904;2022-10-23T18:15:42;15.90;99.90
11855;DHT22;5987;53.140;8.904;2022-10-23T18:18:47;15.80;99.90
11855;DHT22;5987;53.140;8.904;2022-10-23T18:21:53;15.90;99.90
11855;DHT22;5987;53.140;8.904;2022-10-23T18:24:57;15.90;99.90
11855;DHT22;5987;53.140;8.904;2022-10-23T18:28:03;15.90;99.90
11855;DHT22;5987;53.140;8.904;2022-10-23T18:31:07;16.00;99.90
11855;DHT22;5987;53.140;8.904;2022-10-23T18:34:18;16.00;99.90
11855;DHT22;5987;53.140;8.904;2022-10-23T18:37:23;15.90;99.90
11855;DHT22;5987;53.140;8.904;2022-10-23T18:40:33;15.90;99.90
11855;DHT22;5987;53.140;8.904;2022-10-23T18:43:40;15.90;99.90
11855;DHT22;5987;53.140;8.904;2022-10-23T18:46:47;15.90;99.90
11855;DHT22;5987;53.140;8.904;2022-10-23T18:49:51;15.80;99.90
11855;DHT22;5987;53.140;8.904;2022-10-23T18:52:55;15.80;99.90
11855;DHT22;5987;53.140;8.904;2022-10-23T18:55:59;15.90;99.90
11855;DHT22;5987;53.140;8.904;2022-10-23T18:59:05;15.90;99.90
11855;DHT22;5987;53.140;8.904;2022-10-23T19:02:11;16.00;99.90
11855;DHT22;5987;53.140;8.904;2022-10-23T19:05:15;15.90;99.90
11855;DHT22;5987;53.140;8.904;2022-10-23T19:08:19;15.80;99.90
11855;DHT22;5987;53.140;8.904;2022-10-23T19:11:24;15.70;99.90
11855;DHT22;5987;53.140;8.904;2022-10-23T19:14:31;15.70;99.90
11855;DHT22;5987;53.140;8.904;2022-10-23T19:17:35;15.70;99.90
11855;DHT22;5987;53.140;8.904;2022-10-23T19:20:41;15.70;99.90
11855;DHT22;5987;53.140;8.904;2022-10-23T19:23:46;15.80;99.90
11855;DHT22;5987;53.140;8.904;2022-10-23T19:26:51;15.80;99.90
11855;DHT22;5987;53.140;8.904;2022-10-23T19:29:57;15.80;99.90
11855;DHT22;5987;53.140;8.904;2022-10-23T19:33:04;15.90;99.90
11855;DHT22;5987;53.140;8.904;2022-10-23T19:36:08;15.90;99.90
11855;DHT22;5987;53.140;8.904;2022-10-23T19:39:16;16.00;99.90
11855;DHT22;5987;53.140;8.904;2022-10-23T19:42:20;16.00;99.90
11855;DHT22;5987;53.140;8.904;2022-10-23T19:45:25;15.90;99.90
11855;DHT22;5987;53.140;8.904;2022-10-23T19:48:29;15.80;99.90
11855;DHT22;5987;53.140;8.904;2022-10-23T19:51:33;15.70;99.90
11855;DHT22;5987;53.140;8.904;2022-10-23T19:54:36;15.70;99.90
11855;DHT22;5987;53.140;8.904;2022-10-23T19:57:41;15.70;99.90
11855;DHT22;5987;53.140;8.904;2022-10-23T20:00:47;15.70;99.90
11855;DHT22;5987;53.140;8.904;2022-10-23T20:03:51;15.80;99.90
11855;DHT22;5987;53.140;8.904;2022-10-23T20:06:56;15.80;99.90
11855;DHT22;5987;53.140;8.904;2022-10-23T20:10:00;15.80;99.90
11855;DHT22;5987;53.140;8.904;2022-10-23T20:13:04;15.80;99.90
11855;DHT22;5987;53.140;8.904;2022-10-23T20:16:23;15.80;99.90